sensor_id;sensor_type;location;lat;lon;timestamp;P1;durP1;ratioP1;P2;durP2;ratioP2
51602;SDS011;37954;51.980;5.850;2024-03-29T00:00:36;4.38;;;1.17;;
51602;SDS011;37954;51.980;5.850;2024-03-29T00:04:47;3.35;;;1.20;;
51602;SDS011;37954;51.980;5.850;2024-03-29T00:08:57;1.80;;;1.13;;
51602;SDS011;37954;51.980;5.850;2024-03-29T00:13:08;2.50;;;0.93;;
51602;SDS011;37954;51.980;5.850;2024-03-29T00:17:19;2.88;;;1.30;;
51602;SDS011;37954;51.980;5.850;2024-03-29T00:21:30;3.60;;;1.10;;
51602;SDS011;37954;51.980;5.850;2024-03-29T00:25:41;1.13;;;1.02;;
51602;SDS011;37954;51.980;5.850;2024-03-29T00:29:51;2.42;;;1.13;;
51602;SDS011;37954;51.980;5.850;2024-03-29T00:34:05;2.60;;;0.95;;
51602;SDS011;37954;51.980;5.850;2024-03-29T00:38:15;3.35;;;1.08;;
51602;SDS011;37954;51.980;5.850;2024-03-29T00:42:26;2.30;;;1.08;;
51602;SDS011;37954;51.980;5.850;2024-03-29T00:46:37;2.35;;;1.45;;
51602;SDS011;37954;51.980;5.850;2024-03-29T00:50:47;4.60;;;1.42;;
51602;SDS011;37954;51.980;5.850;2024-03-29T00:54:58;4.23;;;1.30;;
51602;SDS011;37954;51.980;5.850;2024-03-29T00:59:09;2.83;;;0.98;;
51602;SDS011;37954;51.980;5.850;2024-03-29T01:03:19;4.00;;;1.05;;
51602;SDS011;37954;51.980;5.850;2024-03-29T01:07:30;1.92;;;1.08;;
51602;SDS011;37954;51.980;5.850;2024-03-29T01:11:41;2.70;;;1.00;;
51602;SDS011;37954;51.980;5.850;2024-03-29T01:15:52;2.38;;;1.00;;
51602;SDS011;37954;51.980;5.850;2024-03-29T01:20:03;2.58;;;1.05;;
51602;SDS011;37954;51.980;5.850;2024-03-29T01:24:13;2.65;;;0.90;;
51602;SDS011;37954;51.980;5.850;2024-03-29T01:28:24;2.23;;;0.70;;
51602;SDS011;37954;51.980;5.850;2024-03-29T01:32:35;5.65;;;1.10;;
51602;SDS011;37954;51.980;5.850;2024-03-29T01:36:45;2.40;;;1.00;;
51602;SDS011;37954;51.980;5.850;2024-03-29T01:40:57;2.15;;;1.00;;
51602;SDS011;37954;51.980;5.850;2024-03-29T01:45:08;3.10;;;1.02;;
51602;SDS011;37954;51.980;5.850;2024-03-29T01:49:18;4.07;;;1.00;;
51602;SDS011;37954;51.980;5.850;2024-03-29T01:53:29;2.67;;;0.75;;
51602;SDS011;37954;51.980;5.850;2024-03-29T01:57:41;2.70;;;0.75;;
51602;SDS011;37954;51.980;5.850;2024-03-29T02:01:52;1.97;;;0.77;;
51602;SDS011;37954;51.980;5.850;2024-03-29T02:06:03;1.38;;;0.80;;
51602;SDS011;37954;51.980;5.850;2024-03-29T02:10:15;1.60;;;0.80;;
51602;SDS011;37954;51.980;5.850;2024-03-29T02:14:26;3.03;;;1.03;;
51602;SDS011;37954;51.980;5.850;2024-03-29T02:18:37;3.83;;;0.90;;
51602;SDS011;37954;51.980;5.850;2024-03-29T02:22:53;1.43;;;0.90;;
51602;SDS011;37954;51.980;5.850;2024-03-29T02:27:05;2.40;;;1.00;;
51602;SDS011;37954;51.980;5.850;2024-03-29T02:31:16;2.65;;;1.10;;
51602;SDS011;37954;51.980;5.850;2024-03-29T02:35:27;1.50;;;0.83;;
51602;SDS011;37954;51.980;5.850;2024-03-29T02:39:37;2.17;;;1.00;;
51602;SDS011;37954;51.980;5.850;2024-03-29T02:43:48;2.15;;;0.90;;
51602;SDS011;37954;51.980;5.850;2024-03-29T02:47:59;2.20;;;1.10;;
51602;SDS011;37954;51.980;5.850;2024-03-29T02:52:09;1.20;;;0.80;;
51602;SDS011;37954;51.980;5.850;2024-03-29T02:56:20;1.88;;;0.90;;
51602;SDS011;37954;51.980;5.850;2024-03-29T03:00:33;1.13;;;0.80;;
51602;SDS011;37954;51.980;5.850;2024-03-29T03:04:44;1.65;;;0.80;;
51602;SDS011;37954;51.980;5.850;2024-03-29T03:08:55;2.43;;;1.03;;
51602;SDS011;37954;51.980;5.850;2024-03-29T03:13:25;1.58;;;0.77;;
51602;SDS011;37954;51.980;5.850;2024-03-29T03:17:36;3.80;;;0.95;;
51602;SDS011;37954;51.980;5.850;2024-03-29T03:21:47;1.27;;;0.73;;
51602;SDS011;37954;51.980;5.850;2024-03-29T03:26:01;2.57;;;0.87;;
51602;SDS011;37954;51.980;5.850;2024-03-29T03:30:16;1.42;;;0.90;;
51602;SDS011;37954;51.980;5.850;2024-03-29T03:34:27;2.25;;;0.93;;
51602;SDS011;37954;51.980;5.850;2024-03-29T03:38:38;1.90;;;0.88;;
51602;SDS011;37954;51.980;5.850;2024-03-29T03:42:50;6.43;;;0.93;;
51602;SDS011;37954;51.980;5.850;2024-03-29T03:47:01;3.17;;;0.90;;
51602;SDS011;37954;51.980;5.850;2024-03-29T03:51:11;2.17;;;0.90;;
51602;SDS011;37954;51.980;5.850;2024-03-29T03:55:22;1.23;;;0.90;;
51602;SDS011;37954;51.980;5.850;2024-03-29T03:59:33;1.83;;;0.55;;
51602;SDS011;37954;51.980;5.850;2024-03-29T04:03:44;2.25;;;0.95;;
51602;SDS011;37954;51.980;5.850;2024-03-29T04:07:54;0.77;;;0.52;;
51602;SDS011;37954;51.980;5.850;2024-03-29T04:12:05;1.27;;;0.85;;
51602;SDS011;37954;51.980;5.850;2024-03-29T04:16:16;0.85;;;0.45;;
51602;SDS011;37954;51.980;5.850;2024-03-29T04:20:27;2.27;;;0.80;;
51602;SDS011;37954;51.980;5.850;2024-03-29T04:24:37;1.92;;;0.73;;
51602;SDS011;37954;51.980;5.850;2024-03-29T04:28:48;1.65;;;0.68;;
51602;SDS011;37954;51.980;5.850;2024-03-29T04:32:58;0.93;;;0.40;;
51602;SDS011;37954;51.980;5.850;2024-03-29T04:37:09;0.63;;;0.37;;
51602;SDS011;37954;51.980;5.850;2024-03-29T04:41:20;0.37;;;0.30;;
51602;SDS011;37954;51.980;5.850;2024-03-29T04:45:30;0.90;;;0.52;;
51602;SDS011;37954;51.980;5.850;2024-03-29T04:49:41;1.13;;;0.77;;
51602;SDS011;37954;51.980;5.850;2024-03-29T04:53:52;0.60;;;0.53;;
51602;SDS011;37954;51.980;5.850;2024-03-29T04:58:03;2.88;;;0.65;;
51602;SDS011;37954;51.980;5.850;2024-03-29T05:02:14;5.93;;;0.90;;
51602;SDS011;37954;51.980;5.850;2024-03-29T05:06:39;2.30;;;0.80;;
51602;SDS011;37954;51.980;5.850;2024-03-29T05:10:49;2.23;;;0.73;;
51602;SDS011;37954;51.980;5.850;2024-03-29T05:15:00;2.60;;;0.90;;
51602;SDS011;37954;51.980;5.850;2024-03-29T05:19:12;0.83;;;0.77;;
51602;SDS011;37954;51.980;5.850;2024-03-29T05:23:23;3.70;;;0.90;;
51602;SDS011;37954;51.980;5.850;2024-03-29T05:27:34;1.67;;;1.00;;
51602;SDS011;37954;51.980;5.850;2024-03-29T05:31:45;1.63;;;0.87;;
51602;SDS011;37954;51.980;5.850;2024-03-29T05:35:56;1.37;;;0.97;;
51602;SDS011;37954;51.980;5.850;2024-03-29T05:40:06;3.63;;;1.10;;
51602;SDS011;37954;51.980;5.850;2024-03-29T05:44:18;1.70;;;1.23;;
51602;SDS011;37954;51.980;5.850;2024-03-29T05:48:29;4.10;;;1.00;;
51602;SDS011;37954;51.980;5.850;2024-03-29T05:52:40;2.20;;;0.90;;
51602;SDS011;37954;51.980;5.850;2024-03-29T05:56:50;2.57;;;1.07;;
51602;SDS011;37954;51.980;5.850;2024-03-29T06:01:01;1.13;;;1.00;;
51602;SDS011;37954;51.980;5.850;2024-03-29T06:05:12;1.23;;;0.80;;
51602;SDS011;37954;51.980;5.850;2024-03-29T06:09:22;3.57;;;0.83;;
51602;SDS011;37954;51.980;5.850;2024-03-29T06:13:33;5.03;;;1.20;;
51602;SDS011;37954;51.980;5.850;2024-03-29T06:18:03;0.70;;;0.70;;
51602;SDS011;37954;51.980;5.850;2024-03-29T06:22:13;2.33;;;1.13;;
51602;SDS011;37954;51.980;5.850;2024-03-29T06:26:24;1.33;;;0.80;;
51602;SDS011;37954;51.980;5.850;2024-03-29T06:30:35;1.33;;;1.00;;
51602;SDS011;37954;51.980;5.850;2024-03-29T06:34:46;3.80;;;0.80;;
51602;SDS011;37954;51.980;5.850;2024-03-29T06:38:56;2.50;;;0.70;;
51602;SDS011;37954;51.980;5.850;2024-03-29T06:43:07;2.23;;;0.97;;
51602;SDS011;37954;51.980;5.850;2024-03-29T06:47:19;2.77;;;1.20;;
51602;SDS011;37954;51.980;5.850;2024-03-29T06:51:29;1.80;;;1.27;;
51602;SDS011;37954;51.980;5.850;2024-03-29T06:55:40;1.40;;;1.20;;
51602;SDS011;37954;51.980;5.850;2024-03-29T06:59:51;3.50;;;1.33;;
51602;SDS011;37954;51.980;5.850;2024-03-29T07:04:03;1.80;;;1.30;;
51602;SDS011;37954;51.980;5.850;2024-03-29T07:08:13;2.73;;;1.50;;
51602;SDS011;37954;51.980;5.850;2024-03-29T07:12:24;2.83;;;1.20;;
51602;SDS011;37954;51.980;5.850;2024-03-29T07:16:35;2.90;;;1.67;;
51602;SDS011;37954;51.980;5.850;2024-03-29T07:20:46;2.70;;;1.00;;
51602;SDS011;37954;51.980;5.850;2024-03-29T07:24:56;1.20;;;1.10;;
51602;SDS011;37954;51.980;5.850;2024-03-29T07:29:07;2.93;;;2.20;;
51602;SDS011;37954;51.980;5.850;2024-03-29T07:33:18;3.87;;;1.80;;
51602;SDS011;37954;51.980;5.850;2024-03-29T07:37:31;11.37;;;7.60;;
51602;SDS011;37954;51.980;5.850;2024-03-29T07:41:42;3.28;;;2.95;;
51602;SDS011;37954;51.980;5.850;2024-03-29T07:45:52;3.92;;;2.70;;
51602;SDS011;37954;51.980;5.850;2024-03-29T07:50:03;3.47;;;1.80;;
51602;SDS011;37954;51.980;5.850;2024-03-29T07:54:14;1.70;;;1.42;;
51602;SDS011;37954;51.980;5.850;2024-03-29T07:58:24;2.50;;;1.87;;
51602;SDS011;37954;51.980;5.850;2024-03-29T08:02:35;4.68;;;1.63;;
51602;SDS011;37954;51.980;5.850;2024-03-29T08:06:46;2.40;;;1.27;;
51602;SDS011;37954;51.980;5.850;2024-03-29T08:10:57;3.03;;;1.50;;
51602;SDS011;37954;51.980;5.850;2024-03-29T08:15:07;5.87;;;1.50;;
51602;SDS011;37954;51.980;5.850;2024-03-29T08:19:21;2.27;;;1.57;;
51602;SDS011;37954;51.980;5.850;2024-03-29T08:23:31;2.55;;;1.35;;
51602;SDS011;37954;51.980;5.850;2024-03-29T08:27:42;2.93;;;2.63;;
51602;SDS011;37954;51.980;5.850;2024-03-29T08:31:53;6.20;;;2.70;;
51602;SDS011;37954;51.980;5.850;2024-03-29T08:36:04;2.47;;;1.70;;
51602;SDS011;37954;51.980;5.850;2024-03-29T08:40:16;1.30;;;1.20;;
51602;SDS011;37954;51.980;5.850;2024-03-29T08:44:26;3.03;;;1.50;;
51602;SDS011;37954;51.980;5.850;2024-03-29T08:48:37;2.30;;;1.70;;
51602;SDS011;37954;51.980;5.850;2024-03-29T08:52:50;2.80;;;1.30;;
51602;SDS011;37954;51.980;5.850;2024-03-29T08:57:03;4.40;;;1.77;;
51602;SDS011;37954;51.980;5.850;2024-03-29T09:01:14;6.75;;;2.80;;
51602;SDS011;37954;51.980;5.850;2024-03-29T09:05:25;2.17;;;1.45;;
51602;SDS011;37954;51.980;5.850;2024-03-29T09:09:39;2.40;;;1.73;;
51602;SDS011;37954;51.980;5.850;2024-03-29T09:13:51;2.35;;;1.95;;
51602;SDS011;37954;51.980;5.850;2024-03-29T09:18:04;4.93;;;1.40;;
51602;SDS011;37954;51.980;5.850;2024-03-29T09:22:27;2.50;;;1.45;;
51602;SDS011;37954;51.980;5.850;2024-03-29T09:26:37;2.28;;;1.20;;
51602;SDS011;37954;51.980;5.850;2024-03-29T09:30:50;1.13;;;1.00;;
51602;SDS011;37954;51.980;5.850;2024-03-29T09:35:01;3.80;;;1.30;;
51602;SDS011;37954;51.980;5.850;2024-03-29T09:39:11;1.65;;;1.40;;
51602;SDS011;37954;51.980;5.850;2024-03-29T09:43:22;1.80;;;1.38;;
51602;SDS011;37954;51.980;5.850;2024-03-29T09:47:34;4.55;;;3.22;;
51602;SDS011;37954;51.980;5.850;2024-03-29T09:51:46;2.00;;;1.40;;
51602;SDS011;37954;51.980;5.850;2024-03-29T09:55:58;1.67;;;1.30;;
51602;SDS011;37954;51.980;5.850;2024-03-29T10:00:09;6.55;;;3.58;;
51602;SDS011;37954;51.980;5.850;2024-03-29T10:04:21;1.75;;;1.55;;
51602;SDS011;37954;51.980;5.850;2024-03-29T10:08:34;2.17;;;1.30;;
51602;SDS011;37954;51.980;5.850;2024-03-29T10:12:45;1.30;;;1.20;;
51602;SDS011;37954;51.980;5.850;2024-03-29T10:16:57;2.58;;;1.60;;
51602;SDS011;37954;51.980;5.850;2024-03-29T10:21:08;2.47;;;1.73;;
51602;SDS011;37954;51.980;5.850;2024-03-29T10:25:18;2.40;;;1.50;;
51602;SDS011;37954;51.980;5.850;2024-03-29T10:29:30;1.33;;;1.13;;
51602;SDS011;37954;51.980;5.850;2024-03-29T10:33:44;1.70;;;1.20;;
51602;SDS011;37954;51.980;5.850;2024-03-29T10:37:54;1.45;;;1.20;;
51602;SDS011;37954;51.980;5.850;2024-03-29T10:42:05;2.45;;;1.55;;
51602;SDS011;37954;51.980;5.850;2024-03-29T10:46:16;2.33;;;1.52;;
51602;SDS011;37954;51.980;5.850;2024-03-29T10:50:28;2.63;;;1.70;;
51602;SDS011;37954;51.980;5.850;2024-03-29T10:54:41;1.83;;;1.30;;
51602;SDS011;37954;51.980;5.850;2024-03-29T10:58:52;2.38;;;1.45;;
51602;SDS011;37954;51.980;5.850;2024-03-29T11:03:13;1.88;;;1.30;;
51602;SDS011;37954;51.980;5.850;2024-03-29T11:07:39;1.45;;;1.35;;
51602;SDS011;37954;51.980;5.850;2024-03-29T11:11:51;3.72;;;1.92;;
51602;SDS011;37954;51.980;5.850;2024-03-29T11:16:02;6.32;;;1.40;;
51602;SDS011;37954;51.980;5.850;2024-03-29T11:20:14;3.75;;;2.00;;
51602;SDS011;37954;51.980;5.850;2024-03-29T11:24:28;2.30;;;1.60;;
51602;SDS011;37954;51.980;5.850;2024-03-29T11:28:39;3.55;;;1.65;;
51602;SDS011;37954;51.980;5.850;2024-03-29T11:32:52;1.95;;;1.50;;
51602;SDS011;37954;51.980;5.850;2024-03-29T11:37:06;2.25;;;1.50;;
51602;SDS011;37954;51.980;5.850;2024-03-29T11:41:18;1.45;;;1.35;;
51602;SDS011;37954;51.980;5.850;2024-03-29T11:45:32;1.75;;;1.52;;
51602;SDS011;37954;51.980;5.850;2024-03-29T11:49:44;1.23;;;1.10;;
51602;SDS011;37954;51.980;5.850;2024-03-29T11:53:56;1.50;;;1.40;;
51602;SDS011;37954;51.980;5.850;2024-03-29T11:58:07;3.33;;;1.40;;
51602;SDS011;37954;51.980;5.850;2024-03-29T12:02:18;1.63;;;1.42;;
51602;SDS011;37954;51.980;5.850;2024-03-29T12:06:28;1.40;;;1.08;;
51602;SDS011;37954;51.980;5.850;2024-03-29T12:10:39;2.15;;;1.20;;
51602;SDS011;37954;51.980;5.850;2024-03-29T12:14:50;2.25;;;1.23;;
51602;SDS011;37954;51.980;5.850;2024-03-29T12:19:01;2.15;;;1.00;;
51602;SDS011;37954;51.980;5.850;2024-03-29T12:23:12;1.23;;;1.10;;
51602;SDS011;37954;51.980;5.850;2024-03-29T12:27:23;2.00;;;0.93;;
51602;SDS011;37954;51.980;5.850;2024-03-29T12:31:35;2.25;;;1.30;;
51602;SDS011;37954;51.980;5.850;2024-03-29T12:35:51;1.30;;;1.02;;
51602;SDS011;37954;51.980;5.850;2024-03-29T12:40:04;1.20;;;1.10;;
51602;SDS011;37954;51.980;5.850;2024-03-29T12:44:22;2.45;;;0.90;;
51602;SDS011;37954;51.980;5.850;2024-03-29T12:48:35;0.70;;;0.70;;
51602;SDS011;37954;51.980;5.850;2024-03-29T12:52:45;1.13;;;1.05;;
51602;SDS011;37954;51.980;5.850;2024-03-29T12:56:57;1.60;;;1.20;;
51602;SDS011;37954;51.980;5.850;2024-03-29T13:01:09;1.52;;;1.00;;
51602;SDS011;37954;51.980;5.850;2024-03-29T13:05:20;1.70;;;1.10;;
51602;SDS011;37954;51.980;5.850;2024-03-29T13:09:31;0.65;;;0.65;;
51602;SDS011;37954;51.980;5.850;2024-03-29T13:13:42;1.08;;;0.93;;
51602;SDS011;37954;51.980;5.850;2024-03-29T13:17:54;1.05;;;0.95;;
51602;SDS011;37954;51.980;5.850;2024-03-29T13:22:05;1.00;;;0.90;;
51602;SDS011;37954;51.980;5.850;2024-03-29T13:26:16;0.80;;;0.80;;
51602;SDS011;37954;51.980;5.850;2024-03-29T13:30:27;2.13;;;1.63;;
51602;SDS011;37954;51.980;5.850;2024-03-29T13:34:42;1.00;;;0.85;;
51602;SDS011;37954;51.980;5.850;2024-03-29T13:38:53;0.90;;;0.85;;
51602;SDS011;37954;51.980;5.850;2024-03-29T13:43:03;1.25;;;0.82;;
51602;SDS011;37954;51.980;5.850;2024-03-29T13:47:14;0.95;;;0.63;;
51602;SDS011;37954;51.980;5.850;2024-03-29T13:51:26;0.85;;;0.85;;
51602;SDS011;37954;51.980;5.850;2024-03-29T13:55:37;0.80;;;0.80;;
51602;SDS011;37954;51.980;5.850;2024-03-29T13:59:48;1.13;;;1.02;;
51602;SDS011;37954;51.980;5.850;2024-03-29T14:03:59;0.68;;;0.68;;
51602;SDS011;37954;51.980;5.850;2024-03-29T14:08:10;1.27;;;1.00;;
51602;SDS011;37954;51.980;5.850;2024-03-29T14:12:20;1.33;;;1.00;;
51602;SDS011;37954;51.980;5.850;2024-03-29T14:16:31;1.00;;;1.00;;
51602;SDS011;37954;51.980;5.850;2024-03-29T14:20:42;1.08;;;0.98;;
51602;SDS011;37954;51.980;5.850;2024-03-29T14:24:53;0.88;;;0.88;;
51602;SDS011;37954;51.980;5.850;2024-03-29T14:29:04;3.80;;;0.90;;
51602;SDS011;37954;51.980;5.850;2024-03-29T14:33:16;1.42;;;1.08;;
51602;SDS011;37954;51.980;5.850;2024-03-29T14:37:27;1.38;;;1.00;;
51602;SDS011;37954;51.980;5.850;2024-03-29T14:41:38;0.80;;;0.80;;
51602;SDS011;37954;51.980;5.850;2024-03-29T14:45:49;0.98;;;0.98;;
51602;SDS011;37954;51.980;5.850;2024-03-29T14:50:00;1.00;;;0.90;;
51602;SDS011;37954;51.980;5.850;2024-03-29T14:54:13;0.63;;;0.63;;
51602;SDS011;37954;51.980;5.850;2024-03-29T14:58:24;0.80;;;0.80;;
51602;SDS011;37954;51.980;5.850;2024-03-29T15:02:34;0.68;;;0.68;;
51602;SDS011;37954;51.980;5.850;2024-03-29T15:06:45;0.75;;;0.75;;
51602;SDS011;37954;51.980;5.850;2024-03-29T15:10:56;0.80;;;0.80;;
51602;SDS011;37954;51.980;5.850;2024-03-29T15:15:17;3.67;;;1.02;;
51602;SDS011;37954;51.980;5.850;2024-03-29T15:19:28;0.93;;;0.93;;
51602;SDS011;37954;51.980;5.850;2024-03-29T15:23:39;1.20;;;0.80;;
51602;SDS011;37954;51.980;5.850;2024-03-29T15:27:50;1.10;;;1.00;;
51602;SDS011;37954;51.980;5.850;2024-03-29T15:32:19;0.80;;;0.60;;
51602;SDS011;37954;51.980;5.850;2024-03-29T15:36:31;3.17;;;0.85;;
51602;SDS011;37954;51.980;5.850;2024-03-29T15:40:42;4.10;;;0.90;;
51602;SDS011;37954;51.980;5.850;2024-03-29T15:44:52;1.27;;;1.02;;
51602;SDS011;37954;51.980;5.850;2024-03-29T15:49:03;1.65;;;1.15;;
51602;SDS011;37954;51.980;5.850;2024-03-29T15:53:14;1.05;;;0.85;;
51602;SDS011;37954;51.980;5.850;2024-03-29T15:57:25;1.38;;;0.70;;
51602;SDS011;37954;51.980;5.850;2024-03-29T16:01:35;0.90;;;0.80;;
51602;SDS011;37954;51.980;5.850;2024-03-29T16:05:46;0.60;;;0.60;;
51602;SDS011;37954;51.980;5.850;2024-03-29T16:09:58;0.82;;;0.82;;
51602;SDS011;37954;51.980;5.850;2024-03-29T16:14:11;2.25;;;0.82;;
51602;SDS011;37954;51.980;5.850;2024-03-29T16:18:22;0.80;;;0.80;;
51602;SDS011;37954;51.980;5.850;2024-03-29T16:22:33;1.35;;;1.25;;
51602;SDS011;37954;51.980;5.850;2024-03-29T16:26:44;0.65;;;0.65;;
51602;SDS011;37954;51.980;5.850;2024-03-29T16:30:54;0.70;;;0.70;;
51602;SDS011;37954;51.980;5.850;2024-03-29T16:35:05;1.15;;;0.93;;
51602;SDS011;37954;51.980;5.850;2024-03-29T16:39:16;0.60;;;0.60;;
51602;SDS011;37954;51.980;5.850;2024-03-29T16:43:26;0.80;;;0.80;;
51602;SDS011;37954;51.980;5.850;2024-03-29T16:47:37;0.73;;;0.73;;
51602;SDS011;37954;51.980;5.850;2024-03-29T16:51:48;1.35;;;0.80;;
51602;SDS011;37954;51.980;5.850;2024-03-29T16:55:58;0.82;;;0.80;;
51602;SDS011;37954;51.980;5.850;2024-03-29T17:00:09;2.88;;;0.77;;
51602;SDS011;37954;51.980;5.850;2024-03-29T17:04:25;1.00;;;0.75;;
51602;SDS011;37954;51.980;5.850;2024-03-29T17:08:35;0.90;;;0.90;;
51602;SDS011;37954;51.980;5.850;2024-03-29T17:12:46;0.90;;;0.90;;
51602;SDS011;37954;51.980;5.850;2024-03-29T17:16:57;2.85;;;0.77;;
51602;SDS011;37954;51.980;5.850;2024-03-29T17:21:11;1.67;;;0.90;;
51602;SDS011;37954;51.980;5.850;2024-03-29T17:25:21;1.42;;;1.10;;
51602;SDS011;37954;51.980;5.850;2024-03-29T17:29:32;1.20;;;1.10;;
51602;SDS011;37954;51.980;5.850;2024-03-29T17:33:45;2.17;;;1.48;;
51602;SDS011;37954;51.980;5.850;2024-03-29T17:37:55;0.80;;;0.80;;
51602;SDS011;37954;51.980;5.850;2024-03-29T17:42:06;1.27;;;1.00;;
51602;SDS011;37954;51.980;5.850;2024-03-29T17:46:16;2.80;;;1.63;;
51602;SDS011;37954;51.980;5.850;2024-03-29T17:50:27;3.33;;;1.83;;
51602;SDS011;37954;51.980;5.850;2024-03-29T17:54:38;2.22;;;1.58;;
51602;SDS011;37954;51.980;5.850;2024-03-29T17:58:48;0.95;;;0.95;;
51602;SDS011;37954;51.980;5.850;2024-03-29T18:02:59;1.30;;;1.10;;
51602;SDS011;37954;51.980;5.850;2024-03-29T18:07:10;2.00;;;0.95;;
51602;SDS011;37954;51.980;5.850;2024-03-29T18:11:21;2.00;;;1.10;;
51602;SDS011;37954;51.980;5.850;2024-03-29T18:15:31;1.73;;;1.50;;
51602;SDS011;37954;51.980;5.850;2024-03-29T18:19:42;1.00;;;1.00;;
51602;SDS011;37954;51.980;5.850;2024-03-29T18:23:53;1.30;;;1.20;;
51602;SDS011;37954;51.980;5.850;2024-03-29T18:28:04;2.05;;;1.80;;
51602;SDS011;37954;51.980;5.850;2024-03-29T18:32:14;2.20;;;1.90;;
51602;SDS011;37954;51.980;5.850;2024-03-29T18:41:00;5.07;;;1.55;;
51602;SDS011;37954;51.980;5.850;2024-03-29T18:45:11;1.40;;;1.30;;
51602;SDS011;37954;51.980;5.850;2024-03-29T18:49:22;5.10;;;2.35;;
51602;SDS011;37954;51.980;5.850;2024-03-29T18:53:33;3.95;;;2.72;;
51602;SDS011;37954;51.980;5.850;2024-03-29T18:57:46;2.42;;;2.22;;
51602;SDS011;37954;51.980;5.850;2024-03-29T19:01:56;2.67;;;1.80;;
51602;SDS011;37954;51.980;5.850;2024-03-29T19:06:07;2.50;;;2.30;;
51602;SDS011;37954;51.980;5.850;2024-03-29T19:10:18;2.03;;;1.83;;
51602;SDS011;37954;51.980;5.850;2024-03-29T19:14:29;3.00;;;2.35;;
51602;SDS011;37954;51.980;5.850;2024-03-29T19:18:39;3.53;;;2.50;;
51602;SDS011;37954;51.980;5.850;2024-03-29T19:22:50;6.88;;;3.10;;
51602;SDS011;37954;51.980;5.850;2024-03-29T19:27:02;6.88;;;5.45;;
51602;SDS011;37954;51.980;5.850;2024-03-29T19:31:14;3.38;;;2.97;;
51602;SDS011;37954;51.980;5.850;2024-03-29T19:35:24;5.53;;;3.75;;
51602;SDS011;37954;51.980;5.850;2024-03-29T19:39:35;5.72;;;3.17;;
51602;SDS011;37954;51.980;5.850;2024-03-29T19:43:46;4.53;;;2.67;;
51602;SDS011;37954;51.980;5.850;2024-03-29T19:47:57;2.30;;;2.10;;
51602;SDS011;37954;51.980;5.850;2024-03-29T19:52:07;2.67;;;2.03;;
51602;SDS011;37954;51.980;5.850;2024-03-29T19:56:18;2.30;;;2.05;;
51602;SDS011;37954;51.980;5.850;2024-03-29T20:00:33;2.65;;;1.80;;
51602;SDS011;37954;51.980;5.850;2024-03-29T20:04:43;3.55;;;2.15;;
51602;SDS011;37954;51.980;5.850;2024-03-29T20:08:54;2.40;;;1.98;;
51602;SDS011;37954;51.980;5.850;2024-03-29T20:13:06;1.60;;;1.50;;
51602;SDS011;37954;51.980;5.850;2024-03-29T20:17:17;4.50;;;3.00;;
51602;SDS011;37954;51.980;5.850;2024-03-29T20:21:27;6.28;;;3.90;;
51602;SDS011;37954;51.980;5.850;2024-03-29T20:25:38;19.23;;;12.25;;
51602;SDS011;37954;51.980;5.850;2024-03-29T20:29:49;8.65;;;5.82;;
51602;SDS011;37954;51.980;5.850;2024-03-29T20:34:00;5.97;;;4.50;;
51602;SDS011;37954;51.980;5.850;2024-03-29T20:38:11;11.43;;;8.80;;
51602;SDS011;37954;51.980;5.850;2024-03-29T20:42:22;7.15;;;6.35;;
51602;SDS011;37954;51.980;5.850;2024-03-29T20:46:34;6.88;;;4.93;;
51602;SDS011;37954;51.980;5.850;2024-03-29T20:50:44;3.15;;;2.58;;
51602;SDS011;37954;51.980;5.850;2024-03-29T20:54:55;5.03;;;3.28;;
51602;SDS011;37954;51.980;5.850;2024-03-29T20:59:08;11.85;;;8.73;;
51602;SDS011;37954;51.980;5.850;2024-03-29T21:03:19;6.00;;;3.30;;
51602;SDS011;37954;51.980;5.850;2024-03-29T21:07:49;10.60;;;6.78;;
51602;SDS011;37954;51.980;5.850;2024-03-29T21:12:00;4.00;;;2.58;;
51602;SDS011;37954;51.980;5.850;2024-03-29T21:16:10;7.45;;;4.55;;
51602;SDS011;37954;51.980;5.850;2024-03-29T21:20:21;5.60;;;2.40;;
51602;SDS011;37954;51.980;5.850;2024-03-29T21:24:31;3.33;;;2.10;;
51602;SDS011;37954;51.980;5.850;2024-03-29T21:28:42;4.80;;;2.95;;
51602;SDS011;37954;51.980;5.850;2024-03-29T21:32:53;6.55;;;4.40;;
51602;SDS011;37954;51.980;5.850;2024-03-29T21:37:03;4.65;;;2.30;;
51602;SDS011;37954;51.980;5.850;2024-03-29T21:41:18;4.00;;;3.03;;
51602;SDS011;37954;51.980;5.850;2024-03-29T21:45:29;5.65;;;2.30;;
51602;SDS011;37954;51.980;5.850;2024-03-29T21:49:40;1.80;;;1.70;;
51602;SDS011;37954;51.980;5.850;2024-03-29T21:53:50;1.83;;;1.60;;
51602;SDS011;37954;51.980;5.850;2024-03-29T21:58:01;2.58;;;1.92;;
51602;SDS011;37954;51.980;5.850;2024-03-29T22:02:13;3.05;;;2.08;;
51602;SDS011;37954;51.980;5.850;2024-03-29T22:06:24;2.40;;;1.88;;
51602;SDS011;37954;51.980;5.850;2024-03-29T22:10:35;3.63;;;1.88;;
51602;SDS011;37954;51.980;5.850;2024-03-29T22:14:46;2.35;;;1.98;;
51602;SDS011;37954;51.980;5.850;2024-03-29T22:18:56;4.47;;;1.75;;
51602;SDS011;37954;51.980;5.850;2024-03-29T22:23:07;1.90;;;1.63;;
51602;SDS011;37954;51.980;5.850;2024-03-29T22:27:18;2.78;;;2.00;;
51602;SDS011;37954;51.980;5.850;2024-03-29T22:31:53;1.27;;;1.17;;
51602;SDS011;37954;51.980;5.850;2024-03-29T22:36:17;1.45;;;1.35;;
51602;SDS011;37954;51.980;5.850;2024-03-29T22:40:29;2.08;;;1.35;;
51602;SDS011;37954;51.980;5.850;2024-03-29T22:44:40;1.40;;;1.30;;
51602;SDS011;37954;51.980;5.850;2024-03-29T22:48:51;1.25;;;1.10;;
51602;SDS011;37954;51.980;5.850;2024-03-29T22:53:02;2.08;;;1.15;;
51602;SDS011;37954;51.980;5.850;2024-03-29T22:57:18;0.95;;;0.88;;
51602;SDS011;37954;51.980;5.850;2024-03-29T23:01:29;1.20;;;1.10;;
51602;SDS011;37954;51.980;5.850;2024-03-29T23:05:40;1.20;;;1.00;;
51602;SDS011;37954;51.980;5.850;2024-03-29T23:09:51;1.75;;;1.05;;
51602;SDS011;37954;51.980;5.850;2024-03-29T23:14:01;3.28;;;1.30;;
51602;SDS011;37954;51.980;5.850;2024-03-29T23:18:12;0.95;;;0.90;;
51602;SDS011;37954;51.980;5.850;2024-03-29T23:22:23;0.85;;;0.85;;
51602;SDS011;37954;51.980;5.850;2024-03-29T23:26:34;1.42;;;1.20;;
51602;SDS011;37954;51.980;5.850;2024-03-29T23:30:45;0.88;;;0.88;;
51602;SDS011;37954;51.980;5.850;2024-03-29T23:34:58;1.00;;;0.93;;
51602;SDS011;37954;51.980;5.850;2024-03-29T23:39:09;1.08;;;0.98;;
51602;SDS011;37954;51.980;5.850;2024-03-29T23:43:20;0.85;;;0.85;;
51602;SDS011;37954;51.980;5.850;2024-03-29T23:47:31;1.02;;;0.85;;
51602;SDS011;37954;51.980;5.850;2024-03-29T23:51:42;1.02;;;0.90;;
